createdAt,value
2018-05-16T00:00:52.912Z,16.27
2018-05-16T00:01:52.915Z,16.29
2018-05-16T00:02:52.913Z,16.29
2018-05-16T00:03:52.910Z,16.27
2018-05-16T00:04:52.909Z,16.22
2018-05-16T00:05:52.901Z,16.17
2018-05-16T00:06:52.900Z,16.29
2018-05-16T00:07:52.900Z,16.25
2018-05-16T00:08:52.898Z,16.32
2018-05-16T00:09:52.898Z,16.27
2018-05-16T00:10:52.896Z,16.32
2018-05-16T00:11:52.896Z,16.32
2018-05-16T00:12:52.893Z,16.32
2018-05-16T00:13:52.887Z,16.23
2018-05-16T00:14:52.885Z,16.32
2018-05-16T00:15:52.889Z,16.25
2018-05-16T00:16:52.886Z,16.37
2018-05-16T00:17:52.879Z,16.34
2018-05-16T00:18:52.878Z,16.36
2018-05-16T00:19:52.876Z,16.40
2018-05-16T00:20:52.876Z,16.36
2018-05-16T00:21:52.877Z,16.36
2018-05-16T00:22:52.874Z,16.33
2018-05-16T00:23:52.877Z,16.42
2018-05-16T00:24:52.871Z,16.37
2018-05-16T00:25:52.864Z,16.36
2018-05-16T00:26:52.862Z,16.42
2018-05-16T00:27:52.859Z,16.42
2018-05-16T00:28:52.859Z,16.36
2018-05-16T00:29:52.861Z,16.40
2018-05-16T00:30:52.859Z,16.32
2018-05-16T00:31:52.853Z,16.37
2018-05-16T00:32:52.852Z,16.37
2018-05-16T00:33:52.855Z,16.37
2018-05-16T00:34:52.851Z,16.41
2018-05-16T00:35:52.850Z,16.54
2018-05-16T00:36:52.849Z,16.57
2018-05-16T00:37:52.842Z,16.50
2018-05-16T00:38:52.841Z,16.63
2018-05-16T00:39:52.838Z,16.63
2018-05-16T00:40:52.840Z,16.78
2018-05-16T00:41:52.841Z,16.75
2018-05-16T00:42:52.837Z,16.81
2018-05-16T00:43:52.835Z,16.73
2018-05-16T00:44:52.836Z,16.78
2018-05-16T00:45:52.828Z,16.80
2018-05-16T00:46:52.825Z,16.81
2018-05-16T00:47:52.828Z,16.92
2018-05-16T00:48:52.828Z,16.95
2018-05-16T00:49:52.821Z,16.95
2018-05-16T00:50:52.820Z,17.00
2018-05-16T00:51:52.817Z,17.05
2018-05-16T00:52:52.817Z,17.10
2018-05-16T00:53:52.820Z,17.03
2018-05-16T00:54:52.818Z,17.06
2018-05-16T00:55:52.820Z,17.07
2018-05-16T00:56:52.816Z,17.15
2018-05-16T00:57:52.808Z,17.09
2018-05-16T00:58:52.810Z,17.09
2018-05-16T00:59:52.804Z,17.07
2018-05-16T01:00:52.803Z,17.12
2018-05-16T01:01:52.807Z,17.06
2018-05-16T01:02:52.804Z,17.12
2018-05-16T01:03:52.799Z,17.14
2018-05-16T01:04:52.797Z,17.14
2018-05-16T01:05:52.800Z,17.12
2018-05-16T01:06:52.798Z,17.17
2018-05-16T01:07:52.798Z,17.15
2018-05-16T01:08:52.796Z,17.22
2018-05-16T01:09:52.790Z,17.18
2018-05-16T01:10:52.790Z,17.20
2018-05-16T01:11:52.788Z,17.25
2018-05-16T01:12:52.787Z,17.30
2018-05-16T01:13:52.789Z,17.32
2018-05-16T01:14:52.786Z,17.30
2018-05-16T01:15:52.786Z,17.27
2018-05-16T01:16:52.785Z,17.39
2018-05-16T01:17:52.783Z,17.33
2018-05-16T01:18:52.776Z,17.32
2018-05-16T01:19:52.782Z,17.36
2018-05-16T01:20:52.779Z,17.39
2018-05-16T01:21:52.772Z,17.39
2018-05-16T01:22:52.770Z,17.40
2018-05-16T01:23:52.772Z,17.40
2018-05-16T01:24:52.769Z,17.35
2018-05-16T01:25:52.776Z,17.47
2018-05-16T01:26:52.770Z,17.36
2018-05-16T01:27:52.769Z,17.39
2018-05-16T01:28:52.767Z,17.40
2018-05-16T01:29:52.761Z,17.36
2018-05-16T01:30:52.759Z,17.36
2018-05-16T01:31:52.758Z,17.42
2018-05-16T01:32:52.757Z,17.51
2018-05-16T01:33:52.760Z,17.47
2018-05-16T01:34:52.758Z,17.46
2018-05-16T01:35:52.752Z,17.51
2018-05-16T01:36:52.751Z,17.49
2018-05-16T01:37:52.755Z,17.47
2018-05-16T01:38:52.753Z,17.55
2018-05-16T01:39:52.801Z,17.54
2018-05-16T01:40:52.749Z,17.53
2018-05-16T01:41:52.744Z,17.76
2018-05-16T01:42:52.741Z,17.77
2018-05-16T01:43:52.741Z,17.87
2018-05-16T01:44:52.740Z,17.89
2018-05-16T01:45:52.744Z,17.83
2018-05-16T01:46:52.740Z,17.81
2018-05-16T01:47:52.740Z,17.89
2018-05-16T01:48:52.739Z,17.81
2018-05-16T01:49:52.735Z,17.76
2018-05-16T01:50:52.731Z,17.77
2018-05-16T01:51:52.734Z,17.83
2018-05-16T01:52:52.732Z,17.80
2018-05-16T01:53:52.725Z,17.73
2018-05-16T01:54:52.723Z,17.71
2018-05-16T01:55:52.722Z,17.66
2018-05-16T01:56:52.720Z,17.65
2018-05-16T01:57:52.722Z,17.63
2018-05-16T01:58:52.720Z,17.62
2018-05-16T01:59:52.719Z,17.62
2018-05-16T02:00:52.716Z,17.71
2018-05-16T02:01:52.710Z,17.65
2018-05-16T02:02:52.707Z,17.58
2018-05-16T02:03:52.705Z,17.62
2018-05-16T02:04:52.704Z,17.57
2018-05-16T02:05:52.708Z,17.55
2018-05-16T02:06:52.704Z,17.62
2018-05-16T02:07:52.698Z,17.74
2018-05-16T02:08:52.695Z,17.80
2018-05-16T02:09:52.699Z,17.66
2018-05-16T02:10:52.696Z,17.76
2018-05-16T02:11:52.693Z,17.73
2018-05-16T02:12:52.692Z,17.79
2018-05-16T02:13:52.693Z,17.77
2018-05-16T02:14:52.683Z,17.79
2018-05-16T02:15:52.682Z,17.80
2018-05-16T02:16:52.679Z,17.76
2018-05-16T02:17:52.682Z,17.68
2018-05-16T02:18:52.679Z,17.79
2018-05-16T02:19:52.680Z,17.71
2018-05-16T02:20:52.678Z,17.73
2018-05-16T02:21:52.671Z,17.74
2018-05-16T02:22:52.669Z,17.77
2018-05-16T02:23:52.675Z,17.66
2018-05-16T02:24:52.670Z,17.76
2018-05-16T02:25:52.664Z,17.80
2018-05-16T02:26:52.660Z,17.80
2018-05-16T02:27:52.658Z,17.80
2018-05-16T02:28:52.657Z,17.74
2018-05-16T02:29:52.661Z,17.81
2018-05-16T02:30:52.659Z,17.80
2018-05-16T02:31:52.655Z,17.70
2018-05-16T02:32:52.654Z,17.74
2018-05-16T02:33:52.649Z,17.74
2018-05-16T02:34:52.646Z,17.73
2018-05-16T02:35:52.646Z,17.80
2018-05-16T02:36:52.643Z,17.66
2018-05-16T02:37:52.650Z,17.60
2018-05-16T02:38:52.643Z,17.62
2018-05-16T02:39:52.637Z,17.66
2018-05-16T02:40:52.635Z,17.62
2018-05-16T02:41:52.641Z,17.58
2018-05-16T02:42:52.635Z,17.62
2018-05-16T02:43:52.642Z,17.62
2018-05-16T02:44:52.633Z,17.57
2018-05-16T02:45:52.630Z,17.60
2018-05-16T02:46:52.624Z,17.60
2018-05-16T02:47:52.623Z,17.65
2018-05-16T02:48:52.621Z,17.63
2018-05-16T02:49:52.625Z,17.53
2018-05-16T02:50:52.625Z,17.62
2018-05-16T02:51:52.619Z,17.62
2018-05-16T02:52:52.618Z,17.55
2018-05-16T02:53:52.612Z,17.55
2018-05-16T02:54:52.610Z,17.49
2018-05-16T02:55:52.613Z,17.47
2018-05-16T02:56:52.611Z,17.46
2018-05-16T02:57:52.612Z,17.51
2018-05-16T02:58:52.603Z,17.47
2018-05-16T02:59:52.602Z,17.42
2018-05-16T03:00:52.601Z,17.38
2018-05-16T03:01:52.603Z,17.45
2018-05-16T03:02:52.601Z,17.33
2018-05-16T03:03:52.601Z,17.43
2018-05-16T03:04:52.600Z,17.36
2018-05-16T03:05:52.593Z,17.42
2018-05-16T03:06:52.591Z,17.35
2018-05-16T03:07:52.589Z,17.33
2018-05-16T03:08:52.588Z,17.35
2018-05-16T03:09:52.592Z,17.28
2018-05-16T03:10:52.588Z,17.27
2018-05-16T03:11:52.582Z,17.22
2018-05-16T03:12:52.589Z,17.22
2018-05-16T03:13:52.585Z,17.15
2018-05-16T03:14:52.581Z,17.25
2018-05-16T03:15:52.581Z,17.18
2018-05-16T03:16:52.587Z,17.22
2018-05-16T03:17:52.578Z,17.27
2018-05-16T03:18:52.576Z,17.12
2018-05-16T03:19:52.571Z,17.15
2018-05-16T03:20:52.567Z,17.27
2018-05-16T03:21:52.572Z,17.24
2018-05-16T03:22:52.569Z,17.17
2018-05-16T03:23:52.569Z,17.12
2018-05-16T03:24:52.566Z,17.24
2018-05-16T03:25:52.564Z,17.18
2018-05-16T03:26:52.559Z,17.10
2018-05-16T03:27:52.561Z,17.18
2018-05-16T03:28:52.560Z,17.14
2018-05-16T03:29:52.554Z,17.07
2018-05-16T03:30:52.553Z,16.99
2018-05-16T03:31:52.551Z,16.98
2018-05-16T03:32:52.551Z,16.95
2018-05-16T03:33:52.554Z,16.92
2018-05-16T03:34:52.552Z,16.98
2018-05-16T03:35:52.550Z,16.92
2018-05-16T03:36:52.548Z,16.88
2018-05-16T03:37:52.542Z,16.91
2018-05-16T03:38:52.539Z,16.92
2018-05-16T03:39:52.538Z,16.87
2018-05-16T03:40:52.535Z,16.84
2018-05-16T03:41:52.539Z,16.84
2018-05-16T03:42:52.537Z,16.80
2018-05-16T03:43:52.530Z,16.81
2018-05-16T03:44:52.529Z,16.66
2018-05-16T03:45:52.531Z,16.72
2018-05-16T03:46:52.530Z,16.50
2018-05-16T03:47:52.527Z,16.52
2018-05-16T03:48:52.526Z,16.47
2018-05-16T03:49:52.520Z,16.34
2018-05-16T03:50:52.516Z,16.33
2018-05-16T03:51:52.544Z,16.29
2018-05-16T03:52:52.513Z,16.22
2018-05-16T03:53:52.517Z,16.16
2018-05-16T03:54:52.513Z,16.11
2018-05-16T03:55:52.511Z,16.06
2018-05-16T03:56:52.509Z,16.08
2018-05-16T03:57:52.503Z,16.03
2018-05-16T03:58:52.500Z,16.06
2018-05-16T03:59:52.502Z,15.95
2018-05-16T04:00:52.578Z,15.95
2018-05-16T04:01:52.496Z,15.99
2018-05-16T04:02:52.491Z,15.92
2018-05-16T04:03:52.491Z,15.91
2018-05-16T04:04:52.488Z,15.95
2018-05-16T04:05:52.492Z,15.96
2018-05-16T04:06:52.487Z,15.96
2018-05-16T04:07:52.485Z,16.01
2018-05-16T04:08:52.485Z,15.95
2018-05-16T04:09:52.477Z,15.92
2018-05-16T04:10:52.473Z,15.84
2018-05-16T04:11:52.471Z,15.84
2018-05-16T04:12:52.469Z,15.96
2018-05-16T04:13:52.471Z,16.04
2018-05-16T04:14:52.468Z,15.96
2018-05-16T04:15:52.470Z,15.95
2018-05-16T04:16:52.460Z,15.99
2018-05-16T04:17:52.462Z,15.98
2018-05-16T04:18:52.459Z,15.95
2018-05-16T04:19:52.457Z,15.88
2018-05-16T04:20:52.457Z,16.01
2018-05-16T04:21:52.449Z,15.92
2018-05-16T04:22:52.444Z,15.99
2018-05-16T04:23:52.443Z,15.89
2018-05-16T04:24:52.449Z,15.92
2018-05-16T04:25:52.444Z,15.93
2018-05-16T04:26:52.441Z,16.01
2018-05-16T04:27:52.437Z,16.07
2018-05-16T04:28:52.511Z,16.10
2018-05-16T04:29:52.428Z,16.08
2018-05-16T04:30:52.425Z,16.16
2018-05-16T04:31:52.428Z,16.25
2018-05-16T04:32:52.426Z,16.30
2018-05-16T04:33:52.419Z,16.29
2018-05-16T04:34:52.417Z,16.36
2018-05-16T04:35:52.416Z,16.33
2018-05-16T04:36:52.413Z,16.41
2018-05-16T04:37:52.417Z,16.44
2018-05-16T04:38:52.414Z,16.52
2018-05-16T04:39:52.409Z,16.57
2018-05-16T04:40:52.407Z,16.70
2018-05-16T04:41:52.459Z,16.78
2018-05-16T04:42:52.399Z,16.81
2018-05-16T04:43:52.396Z,16.92
2018-05-16T04:44:52.396Z,17.00
2018-05-16T04:45:52.399Z,17.06
2018-05-16T04:46:52.396Z,17.24
2018-05-16T04:47:52.389Z,17.30
2018-05-16T04:48:52.388Z,17.54
2018-05-16T04:49:52.392Z,17.63
2018-05-16T04:50:52.390Z,17.76
2018-05-16T04:51:52.388Z,17.81
2018-05-16T04:52:52.395Z,18.04
2018-05-16T04:53:52.383Z,18.26
2018-05-16T04:54:52.381Z,18.49
2018-05-16T04:55:52.383Z,18.69
2018-05-16T04:56:52.384Z,18.90
2018-05-16T04:57:52.384Z,18.97
2018-05-16T04:58:52.388Z,19.23
2018-05-16T04:59:52.384Z,19.49
2018-05-16T05:00:52.397Z,19.75
2018-05-16T05:01:52.380Z,20.01
2018-05-16T05:02:52.378Z,20.35
2018-05-16T05:03:52.385Z,20.71
2018-05-16T05:04:52.385Z,21.01
2018-05-16T05:05:52.382Z,21.28
2018-05-16T05:06:52.381Z,21.53
2018-05-16T05:07:52.381Z,21.70
2018-05-16T05:08:52.408Z,21.74
2018-05-16T05:09:52.388Z,21.93
2018-05-16T05:10:52.393Z,21.93
2018-05-16T05:11:52.395Z,21.96
2018-05-16T05:12:52.393Z,22.26
2018-05-16T05:13:52.389Z,22.36
2018-05-16T05:14:52.395Z,22.72
2018-05-16T05:15:52.393Z,23.14
2018-05-16T05:16:52.395Z,23.42
2018-05-16T05:17:52.403Z,23.44
2018-05-16T05:18:52.443Z,23.44
2018-05-16T05:19:52.405Z,23.44
2018-05-16T05:20:52.404Z,23.49
2018-05-16T05:21:52.413Z,23.53
2018-05-16T05:22:52.414Z,23.79
2018-05-16T05:23:52.416Z,24.16
2018-05-16T05:24:52.419Z,24.39
2018-05-16T05:25:52.419Z,24.75
2018-05-16T05:26:52.420Z,24.89
2018-05-16T05:27:52.423Z,25.16
2018-05-16T05:28:52.426Z,25.53
2018-05-16T05:29:52.434Z,25.83
2018-05-16T05:30:52.436Z,26.08
2018-05-16T05:31:52.441Z,26.42
2018-05-16T05:32:52.444Z,26.61
2018-05-16T05:33:52.444Z,26.93
2018-05-16T05:34:52.447Z,27.03
2018-05-16T05:35:52.456Z,27.08
2018-05-16T05:36:52.463Z,27.05
2018-05-16T05:37:52.459Z,27.27
2018-05-16T05:38:52.463Z,27.46
2018-05-16T05:39:52.467Z,27.76
2018-05-16T05:40:52.471Z,27.93
2018-05-16T05:41:52.480Z,28.15
2018-05-16T05:42:52.485Z,28.18
2018-05-16T05:43:52.490Z,28.50
2018-05-16T05:44:52.495Z,28.18
2018-05-16T05:45:52.495Z,28.25
2018-05-16T05:46:52.503Z,28.15
2018-05-16T05:47:52.504Z,28.43
2018-05-16T05:48:52.515Z,28.51
2018-05-16T05:49:52.522Z,28.51
2018-05-16T05:50:52.524Z,28.76
2018-05-16T05:51:52.524Z,29.10
2018-05-16T05:52:52.531Z,29.45
2018-05-16T05:53:52.543Z,29.60
2018-05-16T05:54:52.547Z,29.92
2018-05-16T05:55:52.555Z,30.04
2018-05-16T05:56:52.560Z,30.19
2018-05-16T05:57:52.561Z,30.38
2018-05-16T05:58:52.566Z,30.48
2018-05-16T05:59:52.571Z,30.68
2018-05-16T06:00:52.578Z,30.82
2018-05-16T06:01:52.590Z,30.94
2018-05-16T06:02:52.596Z,31.10
2018-05-16T06:03:52.602Z,31.47
2018-05-16T06:04:52.609Z,31.74
2018-05-16T06:05:52.613Z,31.87
2018-05-16T06:06:52.618Z,31.98
2018-05-16T06:07:52.641Z,32.10
2018-05-16T06:08:52.637Z,32.22
2018-05-16T06:09:52.641Z,32.22
2018-05-16T06:10:52.649Z,32.39
2018-05-16T06:11:52.657Z,32.50
2018-05-16T06:12:52.664Z,32.68
2018-05-16T06:13:52.677Z,32.66
2018-05-16T06:14:52.684Z,32.77
2018-05-16T06:15:52.697Z,32.58
2018-05-16T06:16:52.701Z,32.50
2018-05-16T06:17:52.705Z,32.61
2018-05-16T06:18:52.716Z,32.77
2018-05-16T06:19:52.818Z,32.66
2018-05-16T06:20:52.732Z,32.90
2018-05-16T06:21:52.751Z,32.93
2018-05-16T06:22:52.753Z,33.26
2018-05-16T06:23:52.757Z,33.21
2018-05-16T06:24:52.766Z,32.32
2018-05-16T06:25:52.780Z,32.19
2018-05-16T06:26:52.789Z,32.13
2018-05-16T06:27:52.800Z,31.10
2018-05-16T06:28:52.809Z,30.96
2018-05-16T06:29:52.813Z,31.10
2018-05-16T06:30:52.822Z,31.50
2018-05-16T06:31:52.833Z,31.52
2018-05-16T06:32:52.842Z,31.84
2018-05-16T06:33:52.858Z,32.06
2018-05-16T06:34:52.867Z,32.59
2018-05-16T06:35:52.876Z,32.49
2018-05-16T06:36:52.885Z,32.06
2018-05-16T06:37:52.893Z,32.05
2018-05-16T06:38:52.901Z,31.99
2018-05-16T06:39:52.915Z,31.57
2018-05-16T06:40:52.926Z,30.16
2018-05-16T06:41:52.932Z,30.37
2018-05-16T06:42:52.942Z,30.67
2018-05-16T06:43:52.953Z,30.82
2018-05-16T06:44:52.963Z,31.20
2018-05-16T06:45:52.984Z,31.68
2018-05-16T06:46:52.989Z,32.07
2018-05-16T06:47:52.998Z,32.50
2018-05-16T06:48:53.017Z,32.84
2018-05-16T06:49:53.019Z,33.07
2018-05-16T06:50:53.026Z,33.22
2018-05-16T06:51:53.037Z,33.44
2018-05-16T06:52:53.052Z,33.71
2018-05-16T06:53:53.068Z,34.06
2018-05-16T06:54:53.075Z,34.18
2018-05-16T06:55:53.082Z,34.56
2018-05-16T06:56:53.097Z,34.72
2018-05-16T06:57:53.110Z,34.53
2018-05-16T06:58:53.124Z,34.63
2018-05-16T06:59:53.137Z,34.94
2018-05-16T07:00:53.146Z,35.00
2018-05-16T07:01:53.152Z,35.06
2018-05-16T07:02:53.163Z,35.07
2018-05-16T07:03:53.178Z,35.15
2018-05-16T07:04:53.188Z,35.15
2018-05-16T07:05:53.206Z,34.98
2018-05-16T07:06:53.217Z,34.88
2018-05-16T07:07:53.231Z,35.02
2018-05-16T07:08:53.244Z,35.00
2018-05-16T07:09:53.251Z,35.21
2018-05-16T07:10:53.263Z,35.50
2018-05-16T07:11:53.282Z,35.59
2018-05-16T07:12:53.303Z,35.91
2018-05-16T07:13:53.306Z,36.25
2018-05-16T07:14:53.317Z,36.38
2018-05-16T07:15:53.332Z,36.52
2018-05-16T07:16:53.342Z,36.38
2018-05-16T07:17:53.360Z,36.60
2018-05-16T07:18:53.375Z,36.44
2018-05-16T07:19:53.386Z,36.55
2018-05-16T07:20:53.400Z,36.64
2018-05-16T07:21:53.410Z,36.67
2018-05-16T07:22:53.478Z,36.43
2018-05-16T07:23:53.438Z,36.30
2018-05-16T07:24:53.451Z,35.54
2018-05-16T07:25:53.471Z,34.83
2018-05-16T07:26:53.485Z,34.36
2018-05-16T07:27:53.497Z,33.97
2018-05-16T07:28:53.507Z,33.81
2018-05-16T07:29:53.533Z,33.66
2018-05-16T07:30:53.539Z,33.49
2018-05-16T07:31:53.554Z,33.44
2018-05-16T07:32:53.571Z,33.62
2018-05-16T07:33:53.578Z,33.93
2018-05-16T07:34:53.591Z,34.55
2018-05-16T07:35:53.606Z,35.43
2018-05-16T07:36:53.620Z,35.61
2018-05-16T07:37:53.638Z,35.24
2018-05-16T07:38:53.652Z,35.36
2018-05-16T07:39:53.667Z,35.24
2018-05-16T07:40:53.681Z,35.34
2018-05-16T07:41:53.692Z,34.48
2018-05-16T07:42:53.705Z,34.18
2018-05-16T07:43:53.725Z,34.05
2018-05-16T07:44:53.741Z,33.35
2018-05-16T07:45:53.750Z,33.86
2018-05-16T07:46:53.764Z,34.38
2018-05-16T07:47:53.778Z,34.94
2018-05-16T07:48:53.794Z,34.45
2018-05-16T07:49:53.813Z,34.95
2018-05-16T07:50:53.829Z,35.05
2018-05-16T07:51:53.838Z,35.42
2018-05-16T07:52:53.854Z,35.46
2018-05-16T07:53:53.873Z,34.46
2018-05-16T07:54:53.889Z,34.75
2018-05-16T07:55:53.967Z,35.59
2018-05-16T07:56:53.919Z,36.11
2018-05-16T07:57:53.929Z,36.11
2018-05-16T07:58:53.943Z,36.30
2018-05-16T07:59:53.964Z,33.14
2018-05-16T08:00:53.980Z,32.47
2018-05-16T08:01:53.991Z,33.34
2018-05-16T08:02:54.006Z,34.12
2018-05-16T08:03:54.028Z,35.24
2018-05-16T08:04:54.042Z,36.35
2018-05-16T08:05:54.059Z,37.21
2018-05-16T08:06:54.073Z,37.82
2018-05-16T08:07:54.090Z,38.09
2018-05-16T08:08:54.106Z,37.58
2018-05-16T08:09:54.117Z,37.68
2018-05-16T08:10:54.133Z,37.81
2018-05-16T08:11:54.153Z,37.20
2018-05-16T08:12:54.165Z,35.06
2018-05-16T08:13:54.186Z,34.11
2018-05-16T08:14:54.202Z,34.01
2018-05-16T08:15:54.213Z,33.79
2018-05-16T08:16:54.230Z,33.66
2018-05-16T08:17:54.251Z,33.87
2018-05-16T08:18:54.264Z,33.94
2018-05-16T08:19:54.289Z,33.94
2018-05-16T08:20:54.295Z,32.29
2018-05-16T08:21:54.365Z,32.62
2018-05-16T08:22:54.321Z,33.03
2018-05-16T08:23:54.337Z,32.72
2018-05-16T08:24:54.358Z,33.33
2018-05-16T08:25:54.375Z,33.35
2018-05-16T08:26:54.384Z,32.90
2018-05-16T08:27:54.398Z,32.85
2018-05-16T08:28:54.413Z,32.61
2018-05-16T08:29:54.425Z,32.02
2018-05-16T08:30:54.443Z,31.78
2018-05-16T08:31:54.456Z,30.75
2018-05-16T08:32:54.469Z,29.92
2018-05-16T08:33:54.479Z,29.89
2018-05-16T08:34:54.492Z,29.48
2018-05-16T08:35:54.506Z,29.30
2018-05-16T08:36:54.518Z,29.14
2018-05-16T08:37:54.538Z,29.17
2018-05-16T08:38:54.549Z,28.62
2018-05-16T08:39:54.560Z,28.79
2018-05-16T08:40:54.574Z,29.35
2018-05-16T08:41:54.580Z,29.62
2018-05-16T08:42:54.637Z,30.18
2018-05-16T08:43:54.603Z,29.88
2018-05-16T08:44:54.615Z,30.36
2018-05-16T08:45:54.630Z,30.34
2018-05-16T08:46:54.640Z,30.44
2018-05-16T08:47:54.648Z,30.67
2018-05-16T08:48:54.659Z,30.44
2018-05-16T08:49:54.680Z,29.52
2018-05-16T08:50:54.686Z,28.64
2018-05-16T08:51:54.701Z,27.88
2018-05-16T08:52:54.713Z,27.90
2018-05-16T08:53:54.717Z,27.78
2018-05-16T08:54:54.726Z,27.38
2018-05-16T08:55:54.738Z,27.38
2018-05-16T08:56:54.753Z,27.83
2018-05-16T08:57:54.764Z,27.99
2018-05-16T08:58:54.773Z,28.97
2018-05-16T08:59:54.785Z,30.19
2018-05-16T09:00:54.795Z,30.40
2018-05-16T09:01:54.800Z,31.56
2018-05-16T09:02:54.810Z,32.16
2018-05-16T09:03:54.826Z,32.07
2018-05-16T09:04:54.839Z,30.30
2018-05-16T09:05:54.842Z,29.48
2018-05-16T09:06:54.852Z,29.32
2018-05-16T09:07:54.863Z,29.12
2018-05-16T09:08:54.874Z,29.17
2018-05-16T09:09:54.889Z,28.74
2018-05-16T09:10:54.898Z,28.54
2018-05-16T09:11:54.909Z,27.59
2018-05-16T09:12:54.919Z,27.16
2018-05-16T09:13:54.927Z,27.40
2018-05-16T09:14:54.934Z,27.13
2018-05-16T09:15:54.953Z,27.06
2018-05-16T09:16:54.954Z,26.98
2018-05-16T09:17:54.970Z,27.03
2018-05-16T09:18:54.977Z,26.68
2018-05-16T09:19:54.982Z,26.60
2018-05-16T09:20:54.991Z,26.54
2018-05-16T09:21:55.006Z,26.53
2018-05-16T09:22:55.015Z,26.61
2018-05-16T09:23:55.025Z,26.83
2018-05-16T09:24:55.045Z,27.03
2018-05-16T09:25:55.033Z,26.88
2018-05-16T09:26:55.040Z,26.76
2018-05-16T09:27:55.051Z,26.76
2018-05-16T09:28:55.056Z,26.60
2018-05-16T09:29:55.070Z,26.91
2018-05-16T09:30:55.078Z,27.84
2018-05-16T09:31:55.086Z,28.55
2018-05-16T09:32:55.093Z,27.91
2018-05-16T09:33:55.098Z,27.81
2018-05-16T09:34:55.108Z,28.54
2018-05-16T09:35:55.120Z,28.64
2018-05-16T09:36:55.126Z,28.69
2018-05-16T09:37:55.131Z,28.91
2018-05-16T09:38:55.137Z,28.67
2018-05-16T09:39:55.145Z,28.97
2018-05-16T09:40:55.154Z,28.17
2018-05-16T09:41:55.169Z,27.45
2018-05-16T09:42:55.176Z,27.23
2018-05-16T09:43:55.186Z,27.49
2018-05-16T09:44:55.194Z,27.91
2018-05-16T09:45:55.219Z,27.98
2018-05-16T09:46:55.207Z,28.01
2018-05-16T09:47:55.217Z,28.05
2018-05-16T09:48:55.233Z,28.25
2018-05-16T09:49:55.243Z,28.20
2018-05-16T09:50:55.249Z,28.18
2018-05-16T09:51:55.254Z,29.36
2018-05-16T09:52:55.262Z,29.66
2018-05-16T09:53:55.278Z,29.35
2018-05-16T09:54:55.285Z,29.55
2018-05-16T09:55:55.295Z,30.34
2018-05-16T09:56:55.304Z,30.66
2018-05-16T09:57:55.310Z,30.72
2018-05-16T09:58:55.319Z,30.97
2018-05-16T09:59:55.329Z,30.38
2018-05-16T10:00:55.340Z,30.36
2018-05-16T10:01:55.357Z,30.15
2018-05-16T10:02:55.370Z,30.32
2018-05-16T10:03:55.377Z,29.92
2018-05-16T10:04:55.388Z,29.47
2018-05-16T10:05:55.395Z,29.47
2018-05-16T10:06:55.406Z,29.54
2018-05-16T10:07:55.422Z,29.51
2018-05-16T10:08:55.433Z,29.21
2018-05-16T10:09:55.511Z,29.18
2018-05-16T10:10:55.450Z,29.27
2018-05-16T10:11:55.461Z,29.07
2018-05-16T10:12:55.474Z,29.17
2018-05-16T10:13:55.490Z,29.39
2018-05-16T10:14:55.500Z,29.66
2018-05-16T10:15:55.511Z,29.55
2018-05-16T10:16:55.523Z,29.37
2018-05-16T10:17:55.527Z,30.00
2018-05-16T10:18:55.537Z,29.74
2018-05-16T10:19:55.549Z,29.73
2018-05-16T10:20:55.558Z,29.88
2018-05-16T10:21:55.573Z,29.84
2018-05-16T10:22:55.582Z,30.01
2018-05-16T10:23:55.589Z,29.86
2018-05-16T10:24:55.664Z,29.85
2018-05-16T10:25:55.615Z,29.44
2018-05-16T10:26:55.625Z,28.94
2018-05-16T10:27:55.636Z,28.21
2018-05-16T10:28:55.649Z,28.06
2018-05-16T10:29:55.657Z,28.18
2018-05-16T10:30:55.663Z,28.52
2018-05-16T10:31:55.673Z,28.46
2018-05-16T10:32:55.684Z,27.08
2018-05-16T10:33:55.700Z,26.66
2018-05-16T10:34:55.714Z,25.59
2018-05-16T10:35:55.717Z,25.54
2018-05-16T10:36:55.728Z,26.01
2018-05-16T10:37:55.733Z,26.50
2018-05-16T10:38:55.741Z,26.34
2018-05-16T10:39:55.755Z,26.53
2018-05-16T10:40:55.768Z,26.47
2018-05-16T10:41:55.770Z,26.32
2018-05-16T10:42:55.780Z,26.57
2018-05-16T10:43:55.787Z,26.75
2018-05-16T10:44:55.795Z,26.78
2018-05-16T10:45:55.809Z,26.64
2018-05-16T10:46:55.816Z,26.56
2018-05-16T10:47:55.824Z,25.89
2018-05-16T10:48:55.834Z,25.64
2018-05-16T10:49:55.837Z,25.46
2018-05-16T10:50:55.843Z,25.08
2018-05-16T10:51:55.852Z,24.84
2018-05-16T10:52:55.859Z,24.86
2018-05-16T10:53:55.871Z,24.92
2018-05-16T10:54:55.878Z,24.89
2018-05-16T10:55:55.881Z,24.98
2018-05-16T10:56:55.888Z,25.16
2018-05-16T10:57:55.899Z,25.12
2018-05-16T10:58:55.904Z,25.16
2018-05-16T10:59:55.912Z,25.38
2018-05-16T11:00:55.920Z,25.44
2018-05-16T11:01:55.921Z,25.29
2018-05-16T11:02:55.926Z,24.86
2018-05-16T11:03:55.933Z,24.61
2018-05-16T11:04:55.939Z,24.61
2018-05-16T11:05:55.951Z,24.75
2018-05-16T11:06:55.955Z,24.46
2018-05-16T11:07:55.961Z,24.55
2018-05-16T11:08:55.969Z,24.61
2018-05-16T11:09:55.969Z,24.84
2018-05-16T11:10:55.973Z,24.89
2018-05-16T11:11:55.988Z,25.04
2018-05-16T11:12:55.989Z,25.20
2018-05-16T11:13:55.992Z,25.39
2018-05-16T11:14:55.995Z,25.39
2018-05-16T11:15:56.000Z,25.46
2018-05-16T11:16:56.005Z,25.42
2018-05-16T11:17:56.015Z,25.59
2018-05-16T11:18:56.020Z,25.64
2018-05-16T11:19:56.075Z,25.60
2018-05-16T11:20:56.030Z,25.78
2018-05-16T11:21:56.031Z,25.82
2018-05-16T11:22:56.038Z,25.41
2018-05-16T11:23:56.042Z,25.17
2018-05-16T11:24:56.047Z,24.84
2018-05-16T11:25:56.059Z,24.70
2018-05-16T11:26:56.063Z,24.90
2018-05-16T11:27:56.066Z,24.93
2018-05-16T11:28:56.068Z,24.79
2018-05-16T11:29:56.080Z,24.31
2018-05-16T11:30:56.084Z,24.14
2018-05-16T11:31:56.095Z,24.11
2018-05-16T11:32:56.094Z,24.24
2018-05-16T11:33:56.095Z,24.05
2018-05-16T11:34:56.099Z,24.08
2018-05-16T11:35:56.105Z,24.08
2018-05-16T11:36:56.111Z,24.11
2018-05-16T11:37:56.123Z,24.21
2018-05-16T11:38:56.127Z,24.00
2018-05-16T11:39:56.133Z,24.12
2018-05-16T11:40:56.138Z,24.11
2018-05-16T11:41:56.137Z,24.24
2018-05-16T11:42:56.142Z,23.99
2018-05-16T11:43:56.471Z,23.74
2018-05-16T11:44:56.157Z,23.71
2018-05-16T11:45:56.159Z,24.00
2018-05-16T11:46:56.163Z,24.27
2018-05-16T11:47:56.167Z,24.31
2018-05-16T11:48:56.232Z,24.51
2018-05-16T11:49:56.182Z,24.52
2018-05-16T11:50:56.186Z,24.61
2018-05-16T11:51:56.192Z,24.80
2018-05-16T11:52:56.197Z,24.83
2018-05-16T11:53:56.198Z,24.94
2018-05-16T11:54:56.202Z,24.80
2018-05-16T11:55:56.207Z,24.74
2018-05-16T11:56:56.213Z,24.79
2018-05-16T11:57:56.223Z,24.61
2018-05-16T11:58:56.231Z,24.11
2018-05-16T11:59:56.228Z,24.06
2018-05-16T12:00:56.235Z,23.87
2018-05-16T12:01:56.244Z,24.00
2018-05-16T12:02:56.348Z,24.05
2018-05-16T12:03:56.252Z,24.16
2018-05-16T12:04:56.257Z,24.29
2018-05-16T12:05:56.261Z,24.33
2018-05-16T12:06:56.262Z,24.39
2018-05-16T12:07:56.267Z,24.44
2018-05-16T12:08:56.272Z,24.41
2018-05-16T12:09:56.282Z,24.30
2018-05-16T12:10:56.286Z,24.36
2018-05-16T12:11:56.292Z,24.29
2018-05-16T12:12:56.296Z,24.21
2018-05-16T12:13:56.296Z,23.92
2018-05-16T12:14:56.315Z,23.42
2018-05-16T12:15:56.309Z,23.29
2018-05-16T12:16:56.316Z,23.01
2018-05-16T12:17:56.313Z,23.15
2018-05-16T12:18:56.317Z,23.16
2018-05-16T12:19:56.322Z,23.06
2018-05-16T12:20:56.326Z,22.97
2018-05-16T12:21:56.334Z,22.94
2018-05-16T12:22:56.337Z,22.96
2018-05-16T12:23:56.343Z,22.99
2018-05-16T12:24:56.346Z,23.07
2018-05-16T12:25:56.346Z,22.94
2018-05-16T12:26:56.350Z,22.75
2018-05-16T12:27:56.353Z,22.66
2018-05-16T12:28:56.388Z,22.64
2018-05-16T12:29:56.366Z,22.86
2018-05-16T12:30:56.369Z,22.72
2018-05-16T12:31:56.368Z,22.63
2018-05-16T12:32:56.371Z,22.84
2018-05-16T12:33:56.382Z,22.84
2018-05-16T12:34:56.383Z,22.86
2018-05-16T12:35:56.387Z,23.15
2018-05-16T12:36:56.391Z,23.29
2018-05-16T12:37:56.390Z,23.29
2018-05-16T12:38:56.392Z,23.41
2018-05-16T12:39:56.395Z,23.57
2018-05-16T12:40:56.400Z,23.59
2018-05-16T12:41:56.408Z,23.69
2018-05-16T12:42:56.414Z,23.54
2018-05-16T12:43:56.417Z,23.60
2018-05-16T12:44:56.418Z,23.96
2018-05-16T12:45:56.419Z,24.14
2018-05-16T12:46:56.421Z,24.14
2018-05-16T12:47:56.430Z,24.23
2018-05-16T12:48:56.434Z,24.26
2018-05-16T12:49:56.433Z,24.51
2018-05-16T12:50:56.435Z,24.61
2018-05-16T12:51:56.439Z,24.19
2018-05-16T12:52:56.444Z,24.04